Hamburg Airport, Germany

5:08 AM CEST on July 30, 2016 (GMT +0200)
Hamburg | | Change Station

Elev 52 ft 53.63 °N, 9.99 °E | Updated 18 minutes ago

Mostly Cloudy
Mostly Cloudy
61 °F
Feels Like 61 °F
N
7
Wind Variable Wind from SW

Today
High -- | Low -- °F
--% Chance of Precip.
Yesterday
High -- | Low -- °F
Precip. -- in
Pressure 29.80 in
Visibility 6.2 miles
Clouds Mostly Cloudy 1700 ft
Mostly Cloudy 4700 ft
Dew Point 59 °F
Humidity 94%
Rainfall 0.00 in
Snow Depth Not available.
5:32 AM 9:19 PM
Waning Crescent, 17% visible
METAR EDDH 300250Z 22006KT 9999 BKN017 BKN047 16/15 Q1009 NOSIG
Pressure 29.80 in
Visibility 6.2 miles
Clouds Mostly Cloudy 1700 ft
Mostly Cloudy 4700 ft
Dew Point 59 °F
Humidity 94%
Rainfall 0.00 in
Snow Depth Not available.
5:32 AM 9:19 PM
Waning Crescent, 17% visible
METAR EDDH 300250Z 22006KT 9999 BKN017 BKN047 16/15 Q1009 NOSIG

10-Day Weather Forecast

×

Almanac

Astronomy

Jul. 30, 2016 Rise Set
Actual Time
Civil Twilight
Nautical Twilight
Astronomical Twilight
Moon
Length of Visible Light
Length of Day
Tomorrow will be .
, % of the Moon is Illuminated

Today's Extremes

Country Highs Country Lows

Community

WunderPhotos

Upload Photos

1,928,492 photos uploaded!

WunderBlog® & News

Nearby

Air Quality

  Air Quality AQ Index Pollutant
Not available.

Snow Depth

Station Depth Elevation

Earthquake Activity

City Distance Mag. Time & Date
Minimum magnitude displayed is 2.5.

Coastal Water Temperatures

Place Temperature

Stations

Nearby Weather Stations

Station Location Temp. Windchill Dew Point Humidity Wind Precip. Elev Updated Type